createdAt,value
2018-05-29T00:00:35.897Z,9.27
2018-05-29T00:03:04.094Z,8.63
2018-05-29T00:05:32.294Z,9.00
2018-05-29T00:08:00.503Z,9.73
2018-05-29T00:10:28.699Z,8.07
2018-05-29T00:12:56.903Z,7.70
2018-05-29T00:15:25.098Z,9.10
2018-05-29T00:17:53.309Z,8.97
2018-05-29T00:20:21.525Z,8.70
2018-05-29T00:22:49.726Z,8.57
2018-05-29T00:25:17.926Z,8.60
2018-05-29T00:27:46.118Z,8.23
2018-05-29T00:30:14.338Z,9.10
2018-05-29T00:32:43.302Z,8.03
2018-05-29T00:35:11.503Z,8.80
2018-05-29T00:37:39.695Z,8.30
2018-05-29T00:40:07.903Z,8.37
2018-05-29T00:42:36.878Z,8.90
2018-05-29T00:45:05.078Z,8.60
2018-05-29T00:47:33.271Z,8.73
2018-05-29T00:50:01.470Z,8.33
2018-05-29T00:52:29.674Z,9.20
2018-05-29T00:55:09.717Z,8.27
2018-05-29T00:57:37.915Z,9.10
2018-05-29T01:00:06.187Z,8.10
2018-05-29T01:02:34.383Z,8.00
2018-05-29T01:05:02.607Z,8.97
2018-05-29T01:07:30.818Z,8.97
2018-05-29T01:09:59.787Z,8.53
2018-05-29T01:12:28.037Z,9.30
2018-05-29T01:14:56.250Z,8.97
2018-05-29T01:17:24.511Z,7.83
2018-05-29T01:19:52.706Z,9.10
2018-05-29T01:22:21.055Z,8.57
2018-05-29T01:24:49.263Z,8.20
2018-05-29T01:27:17.470Z,10.03
2018-05-29T01:29:46.478Z,8.60
2018-05-29T01:32:14.671Z,9.93
2018-05-29T01:34:42.850Z,8.60
2018-05-29T01:37:11.058Z,8.50
2018-05-29T01:39:39.271Z,8.57
2018-05-29T01:42:07.509Z,8.57
2018-05-29T01:44:35.721Z,8.57
2018-05-29T01:47:03.898Z,9.10
2018-05-29T01:49:32.110Z,8.50
2018-05-29T01:52:00.334Z,8.67
2018-05-29T01:54:28.549Z,10.80
2018-05-29T01:56:56.747Z,9.33
2018-05-29T01:59:24.961Z,9.50
2018-05-29T02:01:53.170Z,8.90
2018-05-29T02:04:21.411Z,8.40
2018-05-29T02:06:49.567Z,9.07
2018-05-29T02:09:17.787Z,9.20
2018-05-29T02:11:45.980Z,8.73
2018-05-29T02:14:14.236Z,11.23
2018-05-29T02:16:42.419Z,8.47
2018-05-29T02:19:10.624Z,9.57
2018-05-29T02:21:38.822Z,9.07
2018-05-29T02:24:07.015Z,12.50
2018-05-29T02:26:35.212Z,8.70
2018-05-29T02:29:03.421Z,9.47
2018-05-29T02:31:31.615Z,8.97
2018-05-29T02:33:59.832Z,7.97
2018-05-29T02:36:28.086Z,8.90
2018-05-29T02:38:56.303Z,8.60
2018-05-29T02:41:24.494Z,8.90
2018-05-29T02:43:52.697Z,12.57
2018-05-29T02:46:20.896Z,8.77
2018-05-29T02:48:49.091Z,8.93
2018-05-29T02:51:17.327Z,8.93
2018-05-29T02:53:45.522Z,10.60
2018-05-29T02:56:14.497Z,8.70
2018-05-29T02:58:42.689Z,8.77
2018-05-29T03:01:10.878Z,8.27
2018-05-29T03:03:39.090Z,8.90
2018-05-29T03:06:07.291Z,9.47
2018-05-29T03:08:35.502Z,8.43
2018-05-29T03:11:03.745Z,9.37
2018-05-29T03:13:31.938Z,8.83
2018-05-29T03:16:00.916Z,8.47
2018-05-29T03:18:29.115Z,8.93
2018-05-29T03:20:57.314Z,30.93
2018-05-29T03:23:25.522Z,36.63
2018-05-29T03:25:53.734Z,39.53
2018-05-29T03:28:21.956Z,44.00
2018-05-29T03:30:50.168Z,50.57
2018-05-29T03:33:18.370Z,44.37
2018-05-29T03:35:46.574Z,46.53
2018-05-29T03:38:14.787Z,44.15
2018-05-29T03:40:43.014Z,47.23
2018-05-29T03:43:12.223Z,48.03
2018-05-29T03:45:40.440Z,48.77
2018-05-29T03:48:08.698Z,48.80
2018-05-29T03:50:36.899Z,49.30
2018-05-29T03:53:05.180Z,46.37
2018-05-29T03:55:33.526Z,50.67
2018-05-29T03:58:01.739Z,53.00
2018-05-29T04:00:29.939Z,49.57
2018-05-29T04:02:58.166Z,49.20
2018-05-29T04:05:26.409Z,50.10
2018-05-29T04:07:54.631Z,52.03
2018-05-29T04:10:22.870Z,50.63
2018-05-29T04:12:51.882Z,52.40
2018-05-29T04:15:20.111Z,52.90
2018-05-29T04:17:48.327Z,56.60
2018-05-29T04:20:16.531Z,52.27
2018-05-29T04:22:44.734Z,54.70
2018-05-29T04:25:12.935Z,51.30
2018-05-29T04:27:41.146Z,51.90
2018-05-29T04:30:09.367Z,53.30
2018-05-29T04:32:37.647Z,53.47
2018-05-29T04:35:05.856Z,53.73
2018-05-29T04:37:34.063Z,58.60
2018-05-29T04:40:02.275Z,56.40
2018-05-29T04:42:31.264Z,58.10
2018-05-29T04:44:59.539Z,55.03
2018-05-29T04:47:27.754Z,59.80
2018-05-29T04:49:55.974Z,56.77
2018-05-29T04:52:24.186Z,58.27
2018-05-29T04:54:52.399Z,57.63
2018-05-29T04:57:20.610Z,63.57
2018-05-29T04:59:48.823Z,58.17
2018-05-29T05:02:17.801Z,64.07
2018-05-29T05:04:46.022Z,56.60
2018-05-29T05:07:14.282Z,58.23
2018-05-29T05:09:43.270Z,58.93
2018-05-29T05:12:11.478Z,63.33
2018-05-29T05:14:40.483Z,62.80
2018-05-29T05:17:08.691Z,57.63
2018-05-29T05:19:36.924Z,56.47
2018-05-29T05:22:05.129Z,61.10
2018-05-29T05:24:33.368Z,59.20
2018-05-29T05:27:01.534Z,61.73
2018-05-29T05:29:29.743Z,59.67
2018-05-29T05:31:58.046Z,60.20
2018-05-29T05:34:26.434Z,62.53
2018-05-29T05:36:54.653Z,60.30
2018-05-29T05:39:22.854Z,60.33
2018-05-29T05:41:51.062Z,58.60
2018-05-29T05:44:19.279Z,55.07
2018-05-29T05:46:47.490Z,57.83
2018-05-29T05:49:15.699Z,59.03
2018-05-29T05:51:43.901Z,60.93
2018-05-29T05:54:12.875Z,60.77
2018-05-29T05:56:41.098Z,58.63
2018-05-29T05:59:09.303Z,56.57
2018-05-29T06:01:37.515Z,57.47
2018-05-29T06:04:05.742Z,61.23
2018-05-29T06:06:33.954Z,50.03
2018-05-29T06:09:02.177Z,55.70
2018-05-29T06:11:31.124Z,61.70
2018-05-29T06:13:59.330Z,55.40
2018-05-29T06:16:27.569Z,55.27
2018-05-29T06:18:55.761Z,54.80
2018-05-29T06:21:23.979Z,56.13
2018-05-29T06:23:53.343Z,55.00
2018-05-29T06:26:22.308Z,54.43
2018-05-29T06:28:51.286Z,58.37
2018-05-29T06:31:19.494Z,61.20
2018-05-29T06:33:47.718Z,57.43
2018-05-29T06:36:15.926Z,51.93
2018-05-29T06:38:44.965Z,55.67
2018-05-29T06:41:13.886Z,55.57
2018-05-29T06:43:42.099Z,60.43
2018-05-29T06:46:10.328Z,54.97
2018-05-29T06:48:38.562Z,52.97
2018-05-29T06:51:06.766Z,52.17
2018-05-29T06:53:34.974Z,55.20
2018-05-29T06:56:03.180Z,55.43
2018-05-29T06:58:31.383Z,52.77
2018-05-29T07:00:59.623Z,51.20
2018-05-29T07:03:27.827Z,51.87
2018-05-29T07:05:56.376Z,59.70
2018-05-29T07:08:24.557Z,54.47
2018-05-29T07:10:52.759Z,56.30
2018-05-29T07:13:20.971Z,53.97
2018-05-29T07:15:49.940Z,55.03
2018-05-29T07:18:18.142Z,53.73
2018-05-29T07:20:46.371Z,45.73
2018-05-29T07:23:14.567Z,43.27
2018-05-29T07:25:42.770Z,38.83
2018-05-29T07:28:10.975Z,32.20
2018-05-29T07:30:39.188Z,28.60
2018-05-29T07:33:07.390Z,26.70
2018-05-29T07:35:35.608Z,27.83
2018-05-29T07:38:03.823Z,24.87
2018-05-29T07:40:32.083Z,20.20
2018-05-29T07:43:00.287Z,22.70
2018-05-29T07:45:29.257Z,19.70
2018-05-29T07:47:57.467Z,23.57
2018-05-29T07:50:25.671Z,19.50
2018-05-29T07:52:53.917Z,22.70
2018-05-29T07:55:22.101Z,21.47
2018-05-29T07:57:50.302Z,19.63
2018-05-29T08:00:18.511Z,22.30
2018-05-29T08:02:46.719Z,24.17
2018-05-29T08:05:14.926Z,25.07
2018-05-29T08:07:43.138Z,24.43
2018-05-29T08:10:12.106Z,25.70
2018-05-29T08:12:40.323Z,21.63
2018-05-29T08:15:08.551Z,24.37
2018-05-29T08:17:36.758Z,28.00
2018-05-29T08:20:05.012Z,25.40
2018-05-29T08:22:33.223Z,25.20
2018-05-29T08:25:01.438Z,27.77
2018-05-29T08:27:29.655Z,40.87
2018-05-29T08:29:57.859Z,37.00
2018-05-29T08:32:26.062Z,38.20
2018-05-29T08:34:54.285Z,45.87
2018-05-29T08:37:22.485Z,40.33
2018-05-29T08:39:50.682Z,44.97
2018-05-29T08:42:18.891Z,42.43
2018-05-29T08:44:47.870Z,42.37
2018-05-29T08:47:16.843Z,35.10
2018-05-29T08:49:45.050Z,44.30
2018-05-29T08:52:13.254Z,41.30
2018-05-29T08:54:41.495Z,39.13
2018-05-29T08:57:09.707Z,38.23
2018-05-29T08:59:37.928Z,39.17
2018-05-29T09:02:06.131Z,41.23
2018-05-29T09:04:34.347Z,43.07
2018-05-29T09:07:02.554Z,44.00
2018-05-29T09:09:30.751Z,36.40
2018-05-29T09:11:58.978Z,35.07
2018-05-29T09:14:27.211Z,33.57
2018-05-29T09:16:55.580Z,45.03
2018-05-29T09:19:23.787Z,33.83
2018-05-29T09:21:52.028Z,33.40
2018-05-29T09:24:20.368Z,31.50
2018-05-29T09:26:48.567Z,39.00
2018-05-29T09:29:16.778Z,45.83
2018-05-29T09:31:44.978Z,40.47
2018-05-29T09:34:13.185Z,32.57
2018-05-29T09:36:41.390Z,31.93
2018-05-29T09:39:09.596Z,32.77
2018-05-29T09:41:37.820Z,25.83
2018-05-29T09:44:06.032Z,28.67
2018-05-29T09:46:34.238Z,24.37
2018-05-29T09:49:02.611Z,25.77
2018-05-29T09:51:30.815Z,24.80
2018-05-29T09:53:59.027Z,27.93
2018-05-29T09:56:27.460Z,24.83
2018-05-29T09:58:56.451Z,21.10
2018-05-29T10:01:24.636Z,19.40
2018-05-29T10:03:52.881Z,21.33
2018-05-29T10:06:21.170Z,21.53
2018-05-29T10:08:49.383Z,25.40
2018-05-29T10:11:17.643Z,29.30
2018-05-29T10:13:45.795Z,25.63
2018-05-29T10:16:13.998Z,22.30
2018-05-29T10:18:42.207Z,28.33
2018-05-29T10:21:10.418Z,25.37
2018-05-29T10:23:38.635Z,24.17
2018-05-29T10:26:06.915Z,26.60
2018-05-29T10:28:35.126Z,28.63
2018-05-29T10:31:03.342Z,29.37
2018-05-29T10:33:31.546Z,27.77
2018-05-29T10:35:59.758Z,21.87
2018-05-29T10:38:27.966Z,21.57
2018-05-29T10:40:56.178Z,20.47
2018-05-29T10:43:24.395Z,21.70
2018-05-29T10:45:52.603Z,27.90
2018-05-29T10:48:20.834Z,26.53
2018-05-29T10:50:49.852Z,19.63
2018-05-29T10:53:18.052Z,19.90
2018-05-29T10:55:46.218Z,23.40
2018-05-29T10:58:14.425Z,18.03
2018-05-29T11:00:42.627Z,19.30
2018-05-29T11:03:10.858Z,18.53
2018-05-29T11:05:39.062Z,22.40
2018-05-29T11:08:07.338Z,20.03
2018-05-29T11:10:36.308Z,27.77
2018-05-29T11:13:04.591Z,18.57
2018-05-29T11:15:32.779Z,19.27
2018-05-29T11:18:01.140Z,17.97
2018-05-29T11:20:30.131Z,19.83
2018-05-29T11:22:59.109Z,19.37
2018-05-29T11:25:27.319Z,15.97
2018-05-29T11:27:55.539Z,17.20
2018-05-29T11:30:23.759Z,16.77
2018-05-29T11:32:51.967Z,16.43
2018-05-29T11:35:20.218Z,17.07
2018-05-29T11:37:48.468Z,18.57
2018-05-29T11:40:16.662Z,15.83
2018-05-29T11:42:44.871Z,14.33
2018-05-29T11:45:13.084Z,15.00
2018-05-29T11:47:41.287Z,16.97
2018-05-29T11:50:09.499Z,15.60
2018-05-29T11:52:37.799Z,15.37
2018-05-29T11:55:06.008Z,18.53
2018-05-29T11:57:34.235Z,13.60
2018-05-29T12:00:02.443Z,15.20
2018-05-29T12:02:30.653Z,16.13
2018-05-29T12:04:58.854Z,16.57
2018-05-29T12:07:27.067Z,15.43
2018-05-29T12:09:55.281Z,13.10
2018-05-29T12:12:25.380Z,17.07
2018-05-29T12:14:53.591Z,16.77
2018-05-29T12:17:21.800Z,14.03
2018-05-29T12:19:50.004Z,15.57
2018-05-29T12:22:18.261Z,20.87
2018-05-29T12:24:46.428Z,14.33
2018-05-29T12:27:15.414Z,13.27
2018-05-29T12:29:43.796Z,13.43
2018-05-29T12:32:12.784Z,13.80
2018-05-29T12:34:41.779Z,13.80
2018-05-29T12:37:10.083Z,13.10
2018-05-29T12:39:38.321Z,13.50
2018-05-29T12:42:06.522Z,12.43
2018-05-29T12:44:34.779Z,17.60
2018-05-29T12:47:03.761Z,14.17
2018-05-29T12:49:31.977Z,16.73
2018-05-29T12:52:00.196Z,12.07
2018-05-29T12:54:28.421Z,15.37
2018-05-29T12:56:56.658Z,13.87
2018-05-29T12:59:24.849Z,14.07
2018-05-29T13:01:53.807Z,15.87
2018-05-29T13:04:22.016Z,16.80
2018-05-29T13:06:50.221Z,17.47
2018-05-29T13:09:18.428Z,13.60
2018-05-29T13:11:46.642Z,15.13
2018-05-29T13:14:14.848Z,14.30
2018-05-29T13:16:43.105Z,15.63
2018-05-29T13:19:11.266Z,14.43
2018-05-29T13:21:39.478Z,12.87
2018-05-29T13:24:07.899Z,13.20
2018-05-29T13:26:39.742Z,11.90
2018-05-29T13:29:07.968Z,14.20
2018-05-29T13:31:36.175Z,15.10
2018-05-29T13:34:04.404Z,11.67
2018-05-29T13:36:32.598Z,20.23
2018-05-29T13:39:00.803Z,11.07
2018-05-29T13:41:29.011Z,13.13
2018-05-29T13:43:57.991Z,12.13
2018-05-29T13:46:26.202Z,15.03
2018-05-29T13:48:54.479Z,13.43
2018-05-29T13:51:22.691Z,9.93
2018-05-29T13:53:50.905Z,9.60
2018-05-29T13:56:19.862Z,11.67
2018-05-29T13:58:48.063Z,14.67
2018-05-29T14:01:16.266Z,10.77
2018-05-29T14:03:44.471Z,14.43
2018-05-29T14:06:12.718Z,11.10
2018-05-29T14:08:40.922Z,11.93
2018-05-29T14:11:09.131Z,13.40
2018-05-29T14:13:37.337Z,12.13
2018-05-29T14:16:05.581Z,12.73
2018-05-29T14:18:34.561Z,13.77
2018-05-29T14:21:02.770Z,13.83
2018-05-29T14:23:30.968Z,14.87
2018-05-29T14:25:59.192Z,14.73
2018-05-29T14:28:27.400Z,15.70
2018-05-29T14:30:55.628Z,14.80
2018-05-29T14:33:24.612Z,15.93
2018-05-29T14:35:52.823Z,13.70
2018-05-29T14:38:21.026Z,15.80
2018-05-29T14:40:49.228Z,14.43
2018-05-29T14:43:17.447Z,14.10
2018-05-29T14:45:45.650Z,14.73
2018-05-29T14:48:13.847Z,12.23
2018-05-29T14:50:42.066Z,13.00
2018-05-29T14:53:10.270Z,13.13
2018-05-29T14:55:38.491Z,10.97
2018-05-29T14:58:07.473Z,15.63
2018-05-29T15:00:35.688Z,11.57
2018-05-29T15:03:03.918Z,12.90
2018-05-29T15:05:32.123Z,15.73
2018-05-29T15:08:00.349Z,11.63
2018-05-29T15:10:28.556Z,14.07
2018-05-29T15:12:56.762Z,17.77
2018-05-29T15:15:24.974Z,20.70
2018-05-29T15:17:53.194Z,24.47
2018-05-29T15:20:21.427Z,18.90
2018-05-29T15:22:49.630Z,20.37
2018-05-29T15:25:17.834Z,16.83
2018-05-29T15:27:46.069Z,16.17
2018-05-29T15:30:14.263Z,13.87
2018-05-29T15:32:42.512Z,17.90
2018-05-29T15:35:11.500Z,15.43
2018-05-29T15:37:39.716Z,13.43
2018-05-29T15:40:07.930Z,16.07
2018-05-29T15:42:36.183Z,13.70
2018-05-29T15:45:04.506Z,13.60
2018-05-29T15:47:33.495Z,14.63
2018-05-29T15:50:01.693Z,15.50
2018-05-29T15:52:29.889Z,38.37
2018-05-29T15:54:58.095Z,32.27
2018-05-29T15:57:26.319Z,26.67
2018-05-29T15:59:54.573Z,22.83
2018-05-29T16:02:22.732Z,23.20
2018-05-29T16:04:50.935Z,27.97
2018-05-29T16:07:19.200Z,18.67
2018-05-29T16:09:47.435Z,19.17
2018-05-29T16:12:15.618Z,16.03
2018-05-29T16:14:43.831Z,15.37
2018-05-29T16:17:12.177Z,15.57
2018-05-29T16:19:40.379Z,15.00
2018-05-29T16:22:08.679Z,14.67
2018-05-29T16:24:37.014Z,14.37
2018-05-29T16:27:05.982Z,12.97
2018-05-29T16:29:34.211Z,14.90
2018-05-29T16:32:02.423Z,13.90
2018-05-29T16:34:30.637Z,12.80
2018-05-29T16:36:59.655Z,13.33
2018-05-29T16:39:27.870Z,10.97
2018-05-29T16:41:56.079Z,13.63
2018-05-29T16:44:24.292Z,10.27
2018-05-29T16:46:52.513Z,10.83
2018-05-29T16:49:20.731Z,13.30
2018-05-29T16:51:48.931Z,8.83
2018-05-29T16:54:17.147Z,13.93
2018-05-29T16:56:45.348Z,11.30
2018-05-29T16:59:13.550Z,11.83
2018-05-29T17:01:41.758Z,9.83
2018-05-29T17:04:10.732Z,7.57
2018-05-29T17:06:38.953Z,6.27
2018-05-29T17:09:07.150Z,7.57
2018-05-29T17:11:35.380Z,7.10
2018-05-29T17:14:03.566Z,7.47
2018-05-29T17:16:31.779Z,11.77
2018-05-29T17:18:59.990Z,6.93
2018-05-29T17:21:28.956Z,7.03
2018-05-29T17:23:57.159Z,8.17
2018-05-29T17:26:26.141Z,9.10
2018-05-29T17:28:54.331Z,8.00
2018-05-29T17:31:22.534Z,7.83
2018-05-29T17:33:50.742Z,7.40
2018-05-29T17:36:18.939Z,7.17
2018-05-29T17:38:47.139Z,8.63
2018-05-29T17:41:15.389Z,10.83
2018-05-29T17:43:44.364Z,8.67
2018-05-29T17:46:12.582Z,7.60
2018-05-29T17:48:40.778Z,7.77
2018-05-29T17:51:08.996Z,9.57
2018-05-29T17:53:37.199Z,9.73
2018-05-29T17:56:05.415Z,11.43
2018-05-29T17:58:33.622Z,7.37
2018-05-29T18:01:02.594Z,11.40
2018-05-29T18:03:30.807Z,8.13
2018-05-29T18:05:58.999Z,10.90
2018-05-29T18:08:27.210Z,10.10
2018-05-29T18:10:55.415Z,8.60
2018-05-29T18:13:24.409Z,11.27
2018-05-29T18:15:52.663Z,9.87
2018-05-29T18:18:20.866Z,12.37
2018-05-29T18:20:49.093Z,13.83
2018-05-29T18:23:17.291Z,12.80
2018-05-29T18:25:46.285Z,12.70
2018-05-29T18:28:15.255Z,13.80
2018-05-29T18:30:43.462Z,12.30
2018-05-29T18:33:11.674Z,12.00
2018-05-29T18:35:39.886Z,17.07
2018-05-29T18:38:08.095Z,10.77
2018-05-29T18:40:36.299Z,17.97
2018-05-29T18:43:04.507Z,13.57
2018-05-29T18:45:32.775Z,16.83
2018-05-29T18:48:00.944Z,13.30
2018-05-29T18:50:29.139Z,13.10
2018-05-29T18:52:58.110Z,13.73
2018-05-29T18:55:26.319Z,13.87
2018-05-29T18:57:54.555Z,12.13
2018-05-29T19:00:22.778Z,15.97
2018-05-29T19:02:50.986Z,15.70
2018-05-29T19:05:19.410Z,15.73
2018-05-29T19:07:48.399Z,13.60
2018-05-29T19:10:17.395Z,18.93
2018-05-29T19:12:45.611Z,19.70
2018-05-29T19:15:13.837Z,17.13
2018-05-29T19:17:42.807Z,15.53
2018-05-29T19:20:11.022Z,20.93
2018-05-29T19:22:39.237Z,13.53
2018-05-29T19:25:07.451Z,17.67
2018-05-29T19:27:35.661Z,15.77
2018-05-29T19:30:03.870Z,18.83
2018-05-29T19:32:32.084Z,15.70
2018-05-29T19:35:00.299Z,11.50
2018-05-29T19:37:28.515Z,13.73
2018-05-29T19:39:56.723Z,15.83
2018-05-29T19:42:24.918Z,10.70
2018-05-29T19:44:54.071Z,11.90
2018-05-29T19:47:23.052Z,12.30
2018-05-29T19:49:52.030Z,11.43
2018-05-29T19:52:20.230Z,11.10
2018-05-29T19:54:48.435Z,10.97
2018-05-29T19:57:17.414Z,13.40
2018-05-29T19:59:45.631Z,11.47
2018-05-29T20:02:13.893Z,12.47
2018-05-29T20:04:42.052Z,13.57
2018-05-29T20:07:10.263Z,11.93
2018-05-29T20:09:38.462Z,11.03
2018-05-29T20:12:06.713Z,11.47
2018-05-29T20:14:34.882Z,12.10
2018-05-29T20:17:03.099Z,11.70
2018-05-29T20:19:31.302Z,17.20
2018-05-29T20:21:59.518Z,18.60
2018-05-29T20:24:28.511Z,16.30
2018-05-29T20:26:56.715Z,18.00
2018-05-29T20:29:24.948Z,15.37
2018-05-29T20:31:53.158Z,16.43
2018-05-29T20:34:21.412Z,15.77
2018-05-29T20:36:49.708Z,12.97
2018-05-29T20:39:17.843Z,15.27
2018-05-29T20:41:46.055Z,15.23
2018-05-29T20:44:14.262Z,18.13
2018-05-29T20:46:42.719Z,22.97
2018-05-29T20:49:10.927Z,15.40
2018-05-29T20:51:39.134Z,18.67
2018-05-29T20:54:08.110Z,20.40
2018-05-29T20:56:36.323Z,19.63
2018-05-29T20:59:04.532Z,18.37
2018-05-29T21:01:32.752Z,20.23
2018-05-29T21:04:00.959Z,20.47
2018-05-29T21:06:29.177Z,20.93
2018-05-29T21:08:57.402Z,26.37
2018-05-29T21:11:25.607Z,29.00
2018-05-29T21:13:53.818Z,22.10
2018-05-29T21:16:22.029Z,18.13
2018-05-29T21:18:50.246Z,19.13
2018-05-29T21:21:18.465Z,26.13
2018-05-29T21:23:46.666Z,20.13
2018-05-29T21:26:14.888Z,23.43
2018-05-29T21:28:43.854Z,20.80
2018-05-29T21:31:12.058Z,25.77
2018-05-29T21:33:40.319Z,24.27
2018-05-29T21:36:09.319Z,26.37
2018-05-29T21:38:38.348Z,25.60
2018-05-29T21:41:06.522Z,25.10
2018-05-29T21:43:34.783Z,26.97
2018-05-29T21:46:03.000Z,29.27
2018-05-29T21:48:31.226Z,27.90
2018-05-29T21:50:59.447Z,29.60
2018-05-29T21:53:27.655Z,31.27
2018-05-29T21:55:56.632Z,26.77
2018-05-29T21:58:24.845Z,30.90
2018-05-29T22:00:53.070Z,28.83
2018-05-29T22:03:21.286Z,23.57
2018-05-29T22:05:49.487Z,25.73
2018-05-29T22:08:17.704Z,32.17
2018-05-29T22:10:45.910Z,21.43
2018-05-29T22:13:14.118Z,29.60
2018-05-29T22:15:42.335Z,23.77
2018-05-29T22:18:11.323Z,22.00
2018-05-29T22:20:40.299Z,22.77
2018-05-29T22:23:08.503Z,21.80
2018-05-29T22:25:36.710Z,22.03
2018-05-29T22:28:04.947Z,24.30
2018-05-29T22:30:33.209Z,20.37
2018-05-29T22:33:01.351Z,17.87
2018-05-29T22:35:29.558Z,17.10
2018-05-29T22:37:57.770Z,15.17
2018-05-29T22:40:26.001Z,14.27
2018-05-29T22:42:54.203Z,17.23
2018-05-29T22:45:22.406Z,14.20
2018-05-29T22:47:50.614Z,12.60
2018-05-29T22:50:18.837Z,12.77
2018-05-29T22:52:47.071Z,11.93
2018-05-29T22:55:15.279Z,16.53
2018-05-29T22:57:43.491Z,13.70
2018-05-29T23:00:11.723Z,15.10
2018-05-29T23:02:39.669Z,12.87
2018-05-29T23:05:08.042Z,17.27
2018-05-29T23:07:37.042Z,16.03
2018-05-29T23:10:06.012Z,15.53
2018-05-29T23:12:34.233Z,14.47
2018-05-29T23:15:02.427Z,12.13
2018-05-29T23:17:30.631Z,14.20
2018-05-29T23:19:58.835Z,12.77
2018-05-29T23:22:27.034Z,13.87
2018-05-29T23:24:55.237Z,11.30
2018-05-29T23:27:23.435Z,10.93
2018-05-29T23:29:51.646Z,10.20
2018-05-29T23:32:19.859Z,10.57
2018-05-29T23:34:48.066Z,10.73
2018-05-29T23:37:16.287Z,11.00
2018-05-29T23:39:44.500Z,11.37
2018-05-29T23:42:12.730Z,8.77
2018-05-29T23:44:40.926Z,10.20
2018-05-29T23:47:09.135Z,8.57
2018-05-29T23:49:37.340Z,8.83
2018-05-29T23:52:05.540Z,7.00
2018-05-29T23:54:33.751Z,7.50
2018-05-29T23:57:01.954Z,6.33
2018-05-29T23:59:30.198Z,6.67
